createdAt,value
2022-09-24T00:01:35.618Z,13.27
2022-09-24T00:04:06.435Z,14.13
2022-09-24T00:06:44.599Z,13.47
2022-09-24T00:09:16.542Z,13.80
2022-09-24T00:11:46.022Z,14.87
2022-09-24T00:14:13.591Z,13.27
2022-09-24T00:16:40.987Z,14.30
2022-09-24T00:19:07.729Z,13.83
2022-09-24T00:21:36.055Z,14.17
2022-09-24T00:24:07.631Z,13.43
2022-09-24T00:26:49.733Z,12.30
2022-09-24T00:29:22.741Z,13.13
2022-09-24T00:31:50.732Z,13.27
2022-09-24T00:34:18.529Z,13.60
2022-09-24T00:36:46.910Z,14.30
2022-09-24T00:39:13.926Z,16.70
2022-09-24T00:41:45.034Z,16.10
2022-09-24T00:44:42.609Z,16.53
2022-09-24T00:47:31.402Z,16.37
2022-09-24T00:50:20.279Z,14.37
2022-09-24T00:52:52.137Z,15.03
2022-09-24T00:55:20.445Z,14.03
2022-09-24T00:57:50.021Z,12.63
2022-09-24T01:00:16.961Z,13.20
2022-09-24T01:02:46.708Z,14.70
2022-09-24T01:05:13.860Z,13.40
2022-09-24T01:07:40.889Z,13.70
2022-09-24T01:10:07.983Z,12.83
2022-09-24T01:12:45.923Z,14.10
2022-09-24T01:15:33.005Z,13.27
2022-09-24T01:18:07.130Z,13.47
2022-09-24T01:20:56.008Z,12.40
2022-09-24T01:24:03.503Z,12.83
2022-09-24T01:26:46.551Z,12.53
2022-09-24T01:29:35.063Z,12.53
2022-09-24T01:32:07.576Z,12.27
2022-09-24T01:34:43.730Z,12.37
2022-09-24T01:37:14.947Z,13.10
2022-09-24T01:39:43.867Z,14.87
2022-09-24T01:42:12.247Z,14.10
2022-09-24T01:44:44.682Z,13.43
2022-09-24T01:47:22.471Z,13.87
2022-09-24T01:49:51.558Z,13.57
2022-09-24T01:52:25.300Z,12.90
2022-09-24T01:54:54.715Z,12.80
2022-09-24T01:57:30.184Z,11.93
2022-09-24T02:00:09.935Z,11.90
2022-09-24T02:03:02.616Z,11.90
2022-09-24T02:05:38.886Z,11.27
2022-09-24T02:08:16.568Z,11.80
2022-09-24T02:10:52.747Z,10.70
2022-09-24T02:13:24.724Z,11.13
2022-09-24T02:15:57.452Z,11.87
2022-09-24T02:18:29.387Z,12.03
2022-09-24T02:20:57.570Z,11.97
2022-09-24T02:23:28.541Z,12.30
2022-09-24T02:26:04.441Z,11.63
2022-09-24T02:28:33.194Z,12.00
2022-09-24T02:31:08.173Z,12.30
2022-09-24T02:33:55.036Z,12.43
2022-09-24T02:36:25.000Z,11.97
2022-09-24T02:38:52.989Z,11.30
2022-09-24T02:41:24.049Z,11.10
2022-09-24T02:43:51.817Z,12.63
2022-09-24T02:46:19.030Z,13.30
2022-09-24T02:48:45.858Z,12.07
2022-09-24T02:51:12.616Z,12.47
2022-09-24T02:53:39.348Z,14.20
2022-09-24T02:56:07.651Z,15.30
2022-09-24T02:58:37.430Z,14.33
2022-09-24T03:01:05.376Z,14.07
2022-09-24T03:03:32.734Z,13.83
2022-09-24T03:05:59.486Z,13.93
2022-09-24T03:08:27.128Z,11.97
2022-09-24T03:10:56.150Z,12.17
2022-09-24T03:13:23.647Z,11.77
2022-09-24T03:15:50.656Z,11.53
2022-09-24T03:18:17.383Z,11.57
2022-09-24T03:20:44.164Z,12.43
2022-09-24T03:23:10.843Z,11.80
2022-09-24T03:25:37.639Z,12.47
2022-09-24T03:28:04.390Z,12.57
2022-09-24T03:30:49.775Z,11.13
2022-09-24T03:33:16.611Z,12.23
2022-09-24T03:35:43.617Z,12.90
2022-09-24T03:38:10.375Z,12.63
2022-09-24T03:40:37.155Z,13.87
2022-09-24T03:43:04.025Z,12.93
2022-09-24T03:45:31.146Z,13.27
2022-09-24T03:47:57.858Z,13.67
2022-09-24T03:50:24.574Z,12.00
2022-09-24T03:52:51.273Z,11.37
2022-09-24T03:55:18.073Z,12.07
2022-09-24T03:57:44.795Z,11.90
2022-09-24T04:00:11.899Z,11.70
2022-09-24T04:02:40.875Z,11.50
2022-09-24T04:05:07.988Z,12.90
2022-09-24T04:07:35.006Z,13.47
2022-09-24T04:10:02.018Z,15.47
2022-09-24T04:12:29.720Z,14.77
2022-09-24T04:14:56.633Z,16.03
2022-09-24T04:17:23.342Z,14.73
2022-09-24T04:19:51.048Z,15.50
2022-09-24T04:22:17.758Z,13.70
2022-09-24T04:24:44.694Z,14.20
2022-09-24T04:27:11.771Z,12.40
2022-09-24T04:29:38.474Z,12.13
2022-09-24T04:32:05.193Z,11.60
2022-09-24T04:34:32.049Z,12.43
2022-09-24T04:36:58.750Z,11.60
2022-09-24T04:39:27.303Z,11.23
2022-09-24T04:41:54.608Z,11.40
2022-09-24T04:44:21.414Z,11.27
2022-09-24T04:46:48.981Z,11.73
2022-09-24T04:49:15.740Z,10.93
2022-09-24T04:51:42.488Z,12.47
2022-09-24T04:54:09.738Z,12.03
2022-09-24T04:56:36.505Z,13.40
2022-09-24T04:59:03.357Z,14.53
2022-09-24T05:01:30.265Z,15.93
2022-09-24T05:03:56.999Z,16.97
2022-09-24T05:06:24.208Z,18.87
2022-09-24T05:08:50.892Z,19.50
2022-09-24T05:11:19.586Z,18.97
2022-09-24T05:13:46.271Z,18.73
2022-09-24T05:16:13.022Z,18.80
2022-09-24T05:18:39.879Z,18.60
2022-09-24T05:21:06.746Z,17.37
2022-09-24T05:23:33.455Z,16.77
2022-09-24T05:26:26.151Z,16.80
2022-09-24T05:28:53.217Z,17.00
2022-09-24T05:31:20.312Z,17.37
2022-09-24T05:33:47.035Z,17.00
2022-09-24T05:36:13.738Z,16.80
2022-09-24T05:38:41.810Z,16.60
2022-09-24T05:41:08.883Z,15.43
2022-09-24T05:43:35.591Z,15.13
2022-09-24T05:46:02.712Z,14.73
2022-09-24T05:48:29.507Z,14.37
2022-09-24T05:50:56.478Z,14.20
2022-09-24T05:53:23.441Z,15.53
2022-09-24T05:55:50.256Z,14.97
2022-09-24T05:58:18.337Z,14.43
2022-09-24T06:00:45.761Z,13.63
2022-09-24T06:03:15.436Z,14.77
2022-09-24T06:05:52.170Z,14.43
2022-09-24T06:08:20.788Z,12.73
2022-09-24T06:10:48.609Z,13.60
2022-09-24T06:13:18.847Z,12.33
2022-09-24T06:15:46.053Z,12.83
2022-09-24T06:18:12.863Z,13.27
2022-09-24T06:20:40.250Z,13.27
2022-09-24T06:23:07.859Z,13.27
2022-09-24T06:25:34.825Z,14.50
2022-09-24T06:28:03.862Z,14.10
2022-09-24T06:30:35.120Z,13.67
2022-09-24T06:33:07.125Z,14.63
2022-09-24T06:35:35.876Z,14.13
2022-09-24T06:38:04.224Z,14.37
2022-09-24T06:40:36.215Z,14.27
2022-09-24T06:43:03.912Z,13.67
2022-09-24T06:45:30.617Z,12.83
2022-09-24T06:48:02.223Z,15.20
2022-09-24T06:50:31.605Z,15.60
2022-09-24T06:52:58.674Z,13.17
2022-09-24T06:55:25.596Z,10.60
2022-09-24T06:58:09.399Z,10.20
2022-09-24T07:00:37.604Z,10.13
2022-09-24T07:03:05.651Z,9.60
2022-09-24T07:05:33.661Z,10.40
2022-09-24T07:08:00.503Z,8.90
2022-09-24T07:10:27.997Z,9.97
2022-09-24T07:12:54.800Z,11.10
2022-09-24T07:15:21.496Z,10.87
2022-09-24T07:17:48.252Z,10.23
2022-09-24T07:20:15.045Z,9.27
2022-09-24T07:22:43.165Z,9.53
2022-09-24T07:25:13.049Z,9.60
2022-09-24T07:27:39.993Z,9.63
2022-09-24T07:30:08.161Z,9.43
2022-09-24T07:32:35.190Z,12.97
2022-09-24T07:35:02.072Z,13.37
2022-09-24T07:37:28.775Z,11.40
2022-09-24T07:39:55.455Z,11.13
2022-09-24T07:42:22.204Z,10.57
2022-09-24T07:44:48.890Z,11.30
2022-09-24T07:47:15.860Z,10.03
2022-09-24T07:49:43.134Z,9.50
2022-09-24T07:52:11.349Z,9.70
2022-09-24T07:54:38.325Z,10.67
2022-09-24T07:57:12.476Z,10.67
2022-09-24T07:59:39.480Z,10.03
2022-09-24T08:02:16.000Z,10.03
2022-09-24T08:04:43.382Z,10.20
2022-09-24T08:07:11.660Z,9.37
2022-09-24T08:09:38.842Z,9.03
2022-09-24T08:12:06.428Z,8.97
2022-09-24T08:14:33.543Z,8.93
2022-09-24T08:17:01.917Z,9.07
2022-09-24T08:19:30.929Z,9.03
2022-09-24T08:21:58.367Z,8.27
2022-09-24T08:24:25.908Z,8.57
2022-09-24T08:26:52.571Z,8.53
2022-09-24T08:29:19.300Z,8.67
2022-09-24T08:31:46.028Z,8.17
2022-09-24T08:34:12.788Z,7.77
2022-09-24T08:36:42.803Z,8.60
2022-09-24T08:39:10.504Z,8.50
2022-09-24T08:41:50.172Z,8.10
2022-09-24T08:44:50.688Z,8.53
2022-09-24T08:47:34.170Z,7.05
2022-09-24T08:50:29.242Z,7.78
2022-09-24T08:53:06.769Z,7.45
2022-09-24T08:55:36.241Z,8.00
2022-09-24T08:58:26.174Z,8.48
2022-09-24T09:01:11.996Z,7.72
2022-09-24T09:03:47.752Z,7.40
2022-09-24T09:06:33.048Z,7.32
2022-09-24T09:09:12.064Z,7.50
2022-09-24T09:11:40.743Z,6.93
2022-09-24T09:14:19.726Z,6.82
2022-09-24T09:16:46.365Z,6.90
2022-09-24T09:19:16.056Z,6.70
2022-09-24T09:21:52.418Z,6.43
2022-09-24T09:24:23.446Z,7.05
2022-09-24T09:26:54.646Z,6.75
2022-09-24T09:29:25.502Z,6.15
2022-09-24T09:32:26.969Z,5.78
2022-09-24T09:35:03.889Z,6.03
2022-09-24T09:37:49.473Z,5.45
2022-09-24T09:40:36.443Z,5.45
2022-09-24T09:43:09.099Z,6.18
2022-09-24T09:46:13.686Z,6.28
2022-09-24T09:48:54.364Z,6.20
2022-09-24T09:51:25.963Z,6.03
2022-09-24T09:53:58.376Z,5.70
2022-09-24T09:56:28.467Z,5.80
2022-09-24T09:59:07.735Z,6.45
2022-09-24T10:01:37.913Z,6.18
2022-09-24T10:04:05.171Z,5.80
2022-09-24T10:06:36.213Z,5.57
2022-09-24T10:09:22.389Z,5.70
2022-09-24T10:11:49.479Z,4.60
2022-09-24T10:14:19.269Z,4.38
2022-09-24T10:16:51.955Z,4.57
2022-09-24T10:19:27.815Z,4.45
2022-09-24T10:22:00.315Z,4.55
2022-09-24T10:24:28.927Z,4.15
2022-09-24T10:26:55.799Z,4.00
2022-09-24T10:29:52.309Z,3.63
2022-09-24T10:32:26.972Z,3.53
2022-09-24T10:35:01.077Z,3.05
2022-09-24T10:37:29.125Z,3.17
2022-09-24T10:40:00.752Z,3.00
2022-09-24T10:42:29.721Z,2.83
2022-09-24T10:45:01.237Z,3.33
2022-09-24T10:47:53.310Z,2.95
2022-09-24T10:50:32.045Z,3.05
2022-09-24T10:53:07.862Z,2.38
2022-09-24T10:56:21.755Z,2.13
2022-09-24T10:59:12.720Z,2.75
2022-09-24T11:02:05.248Z,2.55
2022-09-24T11:04:53.745Z,3.03
2022-09-24T11:07:38.860Z,2.50
2022-09-24T11:10:53.378Z,2.30
2022-09-24T11:13:40.444Z,2.22
2022-09-24T11:16:39.164Z,2.28
2022-09-24T11:19:36.705Z,2.30
2022-09-24T11:22:29.535Z,2.92
2022-09-24T11:25:17.962Z,2.67
2022-09-24T11:28:09.892Z,2.47
2022-09-24T11:30:51.748Z,2.63
2022-09-24T11:33:39.768Z,2.60
2022-09-24T11:36:46.975Z,2.45
2022-09-24T11:39:25.911Z,2.35
2022-09-24T11:42:16.546Z,2.40
2022-09-24T11:44:58.121Z,2.30
2022-09-24T11:47:39.734Z,2.10
2022-09-24T11:50:31.147Z,2.88
2022-09-24T11:53:13.454Z,2.13
2022-09-24T11:55:53.758Z,2.13
2022-09-24T11:58:35.823Z,2.58
2022-09-24T12:01:20.249Z,2.22
2022-09-24T12:04:05.445Z,2.47
2022-09-24T12:06:37.522Z,2.35
2022-09-24T12:09:16.552Z,2.33
2022-09-24T12:11:50.167Z,2.47
2022-09-24T12:14:25.066Z,2.47
2022-09-24T12:17:01.000Z,2.28
2022-09-24T12:19:35.424Z,2.92
2022-09-24T12:22:04.661Z,2.20
2022-09-24T12:24:39.060Z,3.28
2022-09-24T12:27:15.544Z,2.50
2022-09-24T12:30:23.889Z,2.40
2022-09-24T12:33:06.463Z,2.35
2022-09-24T12:35:49.879Z,2.50
2022-09-24T12:38:19.032Z,2.13
2022-09-24T12:41:05.517Z,2.85
2022-09-24T12:43:40.265Z,2.38
2022-09-24T12:46:13.127Z,2.33
2022-09-24T12:48:40.149Z,2.70
2022-09-24T12:51:10.258Z,2.30
2022-09-24T12:53:40.649Z,2.38
2022-09-24T12:56:09.806Z,2.75
2022-09-24T12:58:39.963Z,2.35
2022-09-24T13:01:13.362Z,2.50
2022-09-24T13:03:46.703Z,2.13
2022-09-24T13:06:36.762Z,2.75
2022-09-24T13:09:25.777Z,2.75
2022-09-24T13:12:33.147Z,2.40
2022-09-24T13:15:04.300Z,3.35
2022-09-24T13:17:33.661Z,2.88
2022-09-24T13:20:08.942Z,3.47
2022-09-24T13:22:37.317Z,2.65
2022-09-24T13:25:10.529Z,2.30
2022-09-24T13:27:42.901Z,2.53
2022-09-24T13:30:09.644Z,4.18
2022-09-24T13:32:51.050Z,3.00
2022-09-24T13:35:24.918Z,3.97
2022-09-24T13:38:01.260Z,3.10
2022-09-24T13:40:34.851Z,3.00
2022-09-24T13:43:20.200Z,2.60
2022-09-24T13:45:47.777Z,4.00
2022-09-24T13:48:39.152Z,2.55
2022-09-24T13:51:11.063Z,3.17
2022-09-24T13:54:03.016Z,3.42
2022-09-24T13:56:30.296Z,3.20
2022-09-24T13:59:07.849Z,2.85
2022-09-24T14:01:42.269Z,2.50
2022-09-24T14:04:20.916Z,2.47
2022-09-24T14:06:56.827Z,2.50
2022-09-24T14:09:23.552Z,3.00
2022-09-24T14:11:52.480Z,2.42
2022-09-24T14:14:21.343Z,2.42
2022-09-24T14:16:48.345Z,3.08
2022-09-24T14:19:16.337Z,2.85
2022-09-24T14:21:58.443Z,2.67
2022-09-24T14:24:35.775Z,2.70
2022-09-24T14:27:07.584Z,3.08
2022-09-24T14:29:53.143Z,2.70
2022-09-24T14:32:28.434Z,2.67
2022-09-24T14:35:00.734Z,2.70
2022-09-24T14:37:32.380Z,2.67
2022-09-24T14:40:16.433Z,3.13
2022-09-24T14:42:47.528Z,2.50
2022-09-24T14:45:30.450Z,3.30
2022-09-24T14:48:05.354Z,2.83
2022-09-24T14:50:40.526Z,2.70
2022-09-24T14:53:34.248Z,3.00
2022-09-24T14:56:22.079Z,2.88
2022-09-24T14:58:49.183Z,3.20
2022-09-24T15:01:20.013Z,3.38
2022-09-24T15:04:07.248Z,3.20
2022-09-24T15:06:37.377Z,3.30
2022-09-24T15:09:05.228Z,2.78
2022-09-24T15:11:36.985Z,2.90
2022-09-24T15:14:13.615Z,3.75
2022-09-24T15:16:40.743Z,4.57
2022-09-24T15:19:07.424Z,7.05
2022-09-24T15:21:34.748Z,5.95
2022-09-24T15:24:02.222Z,6.10
2022-09-24T15:26:31.664Z,5.70
2022-09-24T15:28:59.637Z,4.85
2022-09-24T15:31:26.616Z,4.20
2022-09-24T15:33:54.104Z,5.05
2022-09-24T15:36:21.421Z,6.60
2022-09-24T15:38:49.676Z,7.13
2022-09-24T15:41:16.487Z,6.93
2022-09-24T15:43:43.184Z,8.02
2022-09-24T15:46:10.011Z,7.35
2022-09-24T15:48:38.070Z,6.78
2022-09-24T15:51:10.920Z,6.72
2022-09-24T15:53:41.357Z,6.63
2022-09-24T15:56:08.283Z,8.40
2022-09-24T15:58:35.115Z,13.50
2022-09-24T16:01:02.597Z,22.80
2022-09-24T16:03:31.798Z,27.10
2022-09-24T16:05:59.859Z,37.88
2022-09-24T16:08:27.162Z,42.97
2022-09-24T16:10:54.487Z,43.30
2022-09-24T16:13:24.200Z,43.28
2022-09-24T16:15:50.984Z,35.65
2022-09-24T16:18:18.177Z,25.75
2022-09-24T16:20:46.220Z,20.30
2022-09-24T16:23:14.961Z,16.95
2022-09-24T16:25:53.153Z,14.30
2022-09-24T16:28:19.979Z,15.75
2022-09-24T16:30:46.967Z,13.85
2022-09-24T16:33:13.701Z,12.45
2022-09-24T16:35:40.505Z,10.00
2022-09-24T16:38:07.224Z,14.95
2022-09-24T16:40:34.279Z,28.55
2022-09-24T16:43:01.388Z,81.75
2022-09-24T16:45:28.173Z,96.13
2022-09-24T16:47:54.866Z,83.07
2022-09-24T16:50:23.684Z,74.68
2022-09-24T16:52:52.369Z,78.88
2022-09-24T16:55:19.078Z,66.03
2022-09-24T16:57:45.963Z,60.80
2022-09-24T17:00:13.227Z,61.45
2022-09-24T17:02:40.039Z,59.20
2022-09-24T17:05:07.679Z,60.92
2022-09-24T17:07:34.811Z,66.47
2022-09-24T17:10:13.401Z,68.53
2022-09-24T17:12:45.397Z,55.45
2022-09-24T17:15:14.759Z,52.38
2022-09-24T17:17:49.945Z,61.88
2022-09-24T17:20:19.021Z,65.17
2022-09-24T17:22:48.143Z,66.15
2022-09-24T17:25:15.277Z,61.83
2022-09-24T17:27:42.049Z,53.80
2022-09-24T17:30:10.913Z,52.58
2022-09-24T17:32:37.699Z,52.00
2022-09-24T17:35:05.144Z,50.22
2022-09-24T17:37:32.581Z,45.08
2022-09-24T17:39:59.708Z,44.25
2022-09-24T17:42:26.486Z,48.83
2022-09-24T17:44:53.206Z,53.38
2022-09-24T17:47:19.897Z,59.33
2022-09-24T17:49:46.593Z,74.13
2022-09-24T17:52:13.533Z,86.70
2022-09-24T17:54:40.296Z,89.60
2022-09-24T17:57:07.057Z,98.90
2022-09-24T17:59:33.760Z,103.67
2022-09-24T18:02:00.606Z,96.27
2022-09-24T18:04:31.215Z,85.17
2022-09-24T18:06:58.015Z,86.77
2022-09-24T18:09:24.723Z,83.83
2022-09-24T18:11:52.468Z,87.73
2022-09-24T18:14:21.956Z,90.30
2022-09-24T18:16:51.743Z,89.60
2022-09-24T18:19:18.773Z,87.30
2022-09-24T18:21:46.694Z,80.90
2022-09-24T18:24:14.637Z,73.83
2022-09-24T18:26:41.473Z,70.27
2022-09-24T18:29:13.109Z,67.97
2022-09-24T18:31:41.593Z,66.93
2022-09-24T18:34:11.105Z,65.93
2022-09-24T18:36:39.944Z,71.70
2022-09-24T18:39:13.700Z,72.27
2022-09-24T18:41:41.880Z,76.03
2022-09-24T18:44:10.448Z,82.80
2022-09-24T18:46:37.633Z,89.20
2022-09-24T18:49:06.539Z,93.70
2022-09-24T18:51:35.460Z,106.93
2022-09-24T18:54:05.958Z,135.53
2022-09-24T18:56:33.227Z,140.43
2022-09-24T18:59:10.337Z,135.90
2022-09-24T19:01:38.593Z,128.57
2022-09-24T19:04:09.040Z,120.83
2022-09-24T19:06:37.358Z,116.67
2022-09-24T19:09:05.613Z,131.50
2022-09-24T19:11:32.624Z,180.23
2022-09-24T19:13:59.704Z,206.23
2022-09-24T19:16:26.788Z,211.40
2022-09-24T19:18:54.483Z,219.47
2022-09-24T19:21:25.417Z,210.23
2022-09-24T19:23:54.862Z,185.03
2022-09-24T19:26:24.505Z,176.30
2022-09-24T19:28:52.058Z,170.33
2022-09-24T19:31:25.270Z,145.77
2022-09-24T19:33:53.594Z,137.90
2022-09-24T19:36:21.500Z,129.40
2022-09-24T19:38:49.082Z,123.90
2022-09-24T19:41:27.106Z,121.00
2022-09-24T19:43:56.866Z,121.97
2022-09-24T19:46:25.832Z,117.70
2022-09-24T19:48:54.204Z,107.80
2022-09-24T19:51:22.400Z,103.50
2022-09-24T19:53:57.885Z,106.40
2022-09-24T19:56:25.558Z,108.93
2022-09-24T19:58:54.771Z,101.67
2022-09-24T20:01:30.452Z,98.00
2022-09-24T20:03:59.001Z,93.83
2022-09-24T20:06:29.030Z,88.40
2022-09-24T20:08:57.279Z,81.23
2022-09-24T20:11:25.750Z,79.93
2022-09-24T20:13:55.333Z,75.13
2022-09-24T20:16:26.249Z,64.07
2022-09-24T20:18:57.725Z,55.50
2022-09-24T20:21:32.290Z,50.40
2022-09-24T20:23:59.445Z,45.03
2022-09-24T20:26:45.342Z,41.73
2022-09-24T20:29:13.903Z,38.23
2022-09-24T20:31:42.529Z,39.17
2022-09-24T20:34:09.334Z,37.63
2022-09-24T20:36:36.458Z,35.00
2022-09-24T20:39:03.995Z,31.60
2022-09-24T20:41:30.693Z,26.80
2022-09-24T20:43:57.393Z,22.07
2022-09-24T20:46:27.761Z,18.73
2022-09-24T20:48:59.931Z,15.13
2022-09-24T20:51:31.760Z,13.27
2022-09-24T20:53:59.406Z,12.17
2022-09-24T20:56:26.921Z,10.87
2022-09-24T20:58:54.123Z,11.17
2022-09-24T21:01:21.929Z,10.73
2022-09-24T21:03:50.173Z,11.17
2022-09-24T21:06:20.715Z,11.57
2022-09-24T21:08:47.586Z,11.70
2022-09-24T21:11:22.880Z,12.33
2022-09-24T21:13:56.083Z,13.27
2022-09-24T21:16:25.484Z,12.00
2022-09-24T21:18:56.151Z,12.23
2022-09-24T21:21:31.497Z,11.53
2022-09-24T21:24:00.220Z,11.93
2022-09-24T21:26:32.810Z,12.10
2022-09-24T21:29:08.185Z,12.07
2022-09-24T21:31:36.820Z,11.67
2022-09-24T21:34:05.685Z,11.97
2022-09-24T21:36:39.831Z,12.30
2022-09-24T21:39:14.952Z,11.10
2022-09-24T21:41:42.312Z,10.63
2022-09-24T21:44:12.330Z,11.57
2022-09-24T21:46:40.544Z,12.03
2022-09-24T21:49:07.426Z,10.93
2022-09-24T21:51:34.220Z,10.70
2022-09-24T21:54:03.226Z,10.30
2022-09-24T21:56:31.484Z,10.77
2022-09-24T21:58:58.980Z,10.33
2022-09-24T22:01:28.748Z,10.40
2022-09-24T22:03:58.274Z,10.50
2022-09-24T22:06:29.951Z,10.60
2022-09-24T22:08:58.815Z,10.40
2022-09-24T22:11:28.600Z,11.23
2022-09-24T22:14:01.261Z,11.00
2022-09-24T22:16:29.882Z,10.60
2022-09-24T22:18:56.775Z,10.80
2022-09-24T22:21:23.993Z,10.73
2022-09-24T22:23:51.097Z,11.03
2022-09-24T22:26:18.602Z,11.40
2022-09-24T22:28:45.860Z,11.73
2022-09-24T22:31:16.340Z,10.90
2022-09-24T22:34:02.401Z,12.53
2022-09-24T22:36:31.224Z,26.10
2022-09-24T22:38:59.528Z,35.30
2022-09-24T22:41:29.015Z,34.57
2022-09-24T22:43:57.135Z,31.63
2022-09-24T22:46:27.115Z,32.97
2022-09-24T22:48:55.529Z,30.97
2022-09-24T22:51:23.774Z,31.73
2022-09-24T22:53:50.496Z,33.60
2022-09-24T22:56:19.428Z,35.23
2022-09-24T22:58:54.886Z,35.63
2022-09-24T23:01:31.448Z,35.67
2022-09-24T23:03:59.496Z,35.13
2022-09-24T23:06:26.829Z,34.87
2022-09-24T23:08:54.934Z,34.23
2022-09-24T23:11:28.473Z,34.70
2022-09-24T23:14:00.538Z,33.80
2022-09-24T23:16:32.720Z,33.57
2022-09-24T23:19:01.129Z,35.23
2022-09-24T23:21:30.495Z,35.23
2022-09-24T23:24:00.190Z,37.30
2022-09-24T23:26:27.300Z,40.57
2022-09-24T23:28:55.960Z,41.47
2022-09-24T23:31:27.598Z,42.23
2022-09-24T23:33:56.181Z,39.60
2022-09-24T23:36:23.975Z,40.60
2022-09-24T23:38:50.924Z,40.70
2022-09-24T23:41:18.249Z,41.23
2022-09-24T23:43:45.687Z,43.47
2022-09-24T23:46:13.698Z,51.97
2022-09-24T23:48:40.579Z,55.37
2022-09-24T23:51:08.552Z,51.33
2022-09-24T23:53:36.211Z,50.90
2022-09-24T23:56:04.977Z,51.33
2022-09-24T23:58:31.898Z,48.03
